Terminal Aerodrome Forecast
Issued by NWS

Home | Current Version | Previous Version | Text Only | Print | Product List | Glossary On
Versions: 1 2 3 4 5 6 7 8 9 10 11 12 13 14 15 16
346
FTUS46 KLOX 231123
TAFOXR
TAF
KOXR 231123Z 2312/2412 07006KT P6SM SKC
     FM231400 07006KT P6SM SKC WS010/07030KT
     FM231700 08020G30KT P6SM SKC
     FM240000 30010KT P6SM SKC
     FM240400 VRB03KT P6SM SKC
     FM241000 08012KT P6SM SKC
      AMD NOT SKED=

USA.gov is the U.S. government's official web portal to all federal, state and local government web resources and services.